This is the latest recevied weather packets stored in our database for station/object S50APT-10. If no packets are shown the sender has not sent any weather packets the latest 10 day(s).
| Time | Temp. | Humidity | Pressure | Rain* | Wind** | Luminosity | Snow |
|---|---|---|---|---|---|---|---|
| 1777601443 | 5.56° C | 42% | 1029.4 hPa | - | - | - | - |
| 1777600449 | 5.56° C | 41% | 1029.6 hPa | - | - | - | - |
| 1777599455 | 5.56° C | 41% | 1029.7 hPa | - | - | - | - |
| 1777598462 | 5.56° C | 41% | 1029.6 hPa | - | - | - | - |
| 1777597468 | 5.56° C | 41% | 1029.5 hPa | - | - | - | - |
| 1777596474 | 5.56° C | 40% | 1029.5 hPa | - | - | - | - |
| 1777595480 | 6.11° C | 39% | 1029.7 hPa | - | - | - | - |
| 1777594486 | 6.11° C | 39% | 1029.7 hPa | - | - | - | - |
| 1777593493 | 6.67° C | 37% | 1029.8 hPa | - | - | - | - |
| 1777592367 | 8.33° C | 34% | 1029.7 hPa | - | - | - | - |
| 1777591467 | 7.22° C | 36% | 1029.7 hPa | - | - | - | - |
| 1777590474 | 7.78° C | 35% | 1029.8 hPa | - | - | - | - |
| 1777589480 | 7.22° C | 36% | 1029.9 hPa | - | - | - | - |
| 1777588816 | 7.78° C | 36% | 1030 hPa | - | - | - | - |
| 1777587492 | 7.78° C | 35% | 1030 hPa | - | - | - | - |
| 1777586498 | 7.78° C | 34% | 1030 hPa | - | - | - | - |
| 1777585505 | 8.33° C | 34% | 1030 hPa | - | - | - | - |
| 1777584511 | 8.33° C | 34% | 1030 hPa | - | - | - | - |
| 1777583517 | 8.33° C | 34% | 1030 hPa | - | - | - | - |
| 1777582523 | 8.33° C | 34% | 1030.1 hPa | - | - | - | - |
| 1777581529 | 8.33° C | 34% | 1030.1 hPa | - | - | - | - |
| 1777580536 | 8.33° C | 33% | 1030 hPa | - | - | - | - |
| 1777579872 | 8.33° C | 34% | 1029.9 hPa | - | - | - | - |
| 1777578548 | 8.33° C | 34% | 1029.9 hPa | - | - | - | - |
| 1777577554 | 8.33° C | 35% | 1029.8 hPa | - | - | - | - |
* Rain since midnight (hover to see other rain measurements)
** Current wind speed in m/s (hover to see current wind gust speed)